createdAt,value
2022-09-10T00:01:22.478Z,996.4
2022-09-10T00:02:58.690Z,996.4
2022-09-10T00:04:35.111Z,996.4
2022-09-10T00:06:11.384Z,996.5
2022-09-10T00:07:47.731Z,996.5
2022-09-10T00:09:24.125Z,996.5
2022-09-10T00:11:00.435Z,996.4
2022-09-10T00:12:36.775Z,996.4
2022-09-10T00:14:12.994Z,996.5
2022-09-10T00:15:49.434Z,996.5
2022-09-10T00:17:25.663Z,996.4
2022-09-10T00:19:02.130Z,996.4
2022-09-10T00:20:37.443Z,996.5
2022-09-10T00:22:13.680Z,996.5
2022-09-10T00:23:49.996Z,996.5
2022-09-10T00:25:25.355Z,996.5
2022-09-10T00:27:00.783Z,996.5
2022-09-10T00:28:37.084Z,996.5
2022-09-10T00:30:13.441Z,996.5
2022-09-10T00:31:49.693Z,996.5
2022-09-10T00:33:26.139Z,996.5
2022-09-10T00:35:02.436Z,996.4
2022-09-10T00:36:37.776Z,996.5
2022-09-10T00:38:13.073Z,996.6
2022-09-10T00:39:49.519Z,996.5
2022-09-10T00:41:25.735Z,996.5
2022-09-10T00:43:02.179Z,996.5
2022-09-10T00:44:38.487Z,996.5
2022-09-10T00:46:14.817Z,996.5
2022-09-10T00:47:51.095Z,996.5
2022-09-10T00:49:27.404Z,996.5
2022-09-10T00:51:03.819Z,996.5
2022-09-10T00:52:40.179Z,996.4
2022-09-10T00:54:16.454Z,996.4
2022-09-10T00:55:52.699Z,996.4
2022-09-10T00:57:29.085Z,996.5
2022-09-10T00:59:04.488Z,996.5
2022-09-10T01:00:40.846Z,996.4
2022-09-10T01:02:17.032Z,996.4
2022-09-10T01:03:53.478Z,996.4
2022-09-10T01:05:29.695Z,996.4
2022-09-10T01:07:06.118Z,996.4
2022-09-10T01:08:42.474Z,996.4
2022-09-10T01:10:18.795Z,996.4
2022-09-10T01:11:55.099Z,996.4
2022-09-10T01:13:30.476Z,996.4
2022-09-10T01:15:05.756Z,996.4
2022-09-10T01:16:42.093Z,996.4
2022-09-10T01:18:18.483Z,996.4
2022-09-10T01:19:54.860Z,996.4
2022-09-10T01:21:31.082Z,996.5
2022-09-10T01:23:07.390Z,996.4
2022-09-10T01:24:43.706Z,996.5
2022-09-10T01:26:20.092Z,996.5
2022-09-10T01:27:56.367Z,996.5
2022-09-10T01:29:32.825Z,996.5
2022-09-10T01:31:09.052Z,996.5
2022-09-10T01:32:45.429Z,996.5
2022-09-10T01:34:21.756Z,996.5
2022-09-10T01:35:57.048Z,996.5
2022-09-10T01:37:33.448Z,996.5
2022-09-10T01:39:09.836Z,996.5
2022-09-10T01:40:46.167Z,996.5
2022-09-10T01:42:22.502Z,996.5
2022-09-10T01:43:58.812Z,996.4
2022-09-10T01:45:35.037Z,996.4
2022-09-10T01:47:11.477Z,996.4
2022-09-10T01:48:47.758Z,996.4
2022-09-10T01:50:24.045Z,996.5
2022-09-10T01:52:00.422Z,996.4
2022-09-10T01:53:36.673Z,996.5
2022-09-10T01:55:13.042Z,996.4
2022-09-10T01:56:48.387Z,996.4
2022-09-10T01:58:24.830Z,996.4
2022-09-10T02:00:01.113Z,996.4
2022-09-10T02:01:37.425Z,996.4
2022-09-10T02:03:13.781Z,996.4
2022-09-10T02:04:50.132Z,996.4
2022-09-10T02:06:26.436Z,996.4
2022-09-10T02:08:02.775Z,996.4
2022-09-10T02:09:39.149Z,996.4
2022-09-10T02:11:15.353Z,996.4
2022-09-10T02:12:51.669Z,996.4
2022-09-10T02:14:28.092Z,996.4
2022-09-10T02:16:04.455Z,996.4
2022-09-10T02:17:39.739Z,996.5
2022-09-10T02:19:16.024Z,996.4
2022-09-10T02:20:52.369Z,996.5
2022-09-10T02:22:28.667Z,996.5
2022-09-10T02:24:05.120Z,996.5
2022-09-10T02:25:41.424Z,996.5
2022-09-10T02:27:17.770Z,996.5
2022-09-10T02:28:54.119Z,996.5
2022-09-10T02:30:30.332Z,996.5
2022-09-10T02:32:06.774Z,996.5
2022-09-10T02:33:42.989Z,996.5
2022-09-10T02:35:19.322Z,996.5
2022-09-10T02:36:55.719Z,996.5
2022-09-10T02:38:31.003Z,996.5
2022-09-10T02:40:07.327Z,996.5
2022-09-10T02:41:43.652Z,996.5
2022-09-10T02:43:20.085Z,996.6
2022-09-10T02:44:56.325Z,996.6
2022-09-10T02:46:32.676Z,996.5
2022-09-10T02:48:08.980Z,996.5
2022-09-10T02:49:45.358Z,996.5
2022-09-10T02:51:21.693Z,996.6
2022-09-10T02:52:57.975Z,996.5
2022-09-10T02:54:34.296Z,996.5
2022-09-10T02:56:10.632Z,996.5
2022-09-10T02:57:46.987Z,996.5
2022-09-10T02:59:23.300Z,996.5
2022-09-10T03:00:58.638Z,996.5
2022-09-10T03:02:35.000Z,996.5
2022-09-10T03:04:11.303Z,996.5
2022-09-10T03:05:47.630Z,996.5
2022-09-10T03:07:23.991Z,996.5
2022-09-10T03:09:00.299Z,996.5
2022-09-10T03:10:36.629Z,996.4
2022-09-10T03:12:12.962Z,996.5
2022-09-10T03:13:49.288Z,996.5
2022-09-10T03:15:25.630Z,996.4
2022-09-10T03:17:01.959Z,996.4
2022-09-10T03:18:38.310Z,996.5
2022-09-10T03:20:14.615Z,996.5
2022-09-10T03:21:49.993Z,996.4
2022-09-10T03:23:26.291Z,996.4
2022-09-10T03:25:02.621Z,996.3
2022-09-10T03:26:38.949Z,996.4
2022-09-10T03:28:15.290Z,996.4
2022-09-10T03:29:50.641Z,996.4
2022-09-10T03:31:26.986Z,996.4
2022-09-10T03:33:02.336Z,996.4
2022-09-10T03:34:37.677Z,996.5
2022-09-10T03:36:14.004Z,996.5
2022-09-10T03:37:50.345Z,996.5
2022-09-10T03:39:26.669Z,996.4
2022-09-10T03:41:03.005Z,996.5
2022-09-10T03:42:39.337Z,996.4
2022-09-10T03:44:15.684Z,996.4
2022-09-10T03:45:52.004Z,996.4
2022-09-10T03:47:28.329Z,996.4
2022-09-10T03:49:04.674Z,996.4
2022-09-10T03:50:40.997Z,996.4
2022-09-10T03:52:17.321Z,996.4
2022-09-10T03:53:53.650Z,996.4
2022-09-10T03:55:29.980Z,996.4
2022-09-10T03:57:05.356Z,996.4
2022-09-10T03:58:41.688Z,996.5
2022-09-10T04:00:17.988Z,996.5
2022-09-10T04:01:54.316Z,996.5
2022-09-10T04:03:30.652Z,996.4
2022-09-10T04:05:06.992Z,996.4
2022-09-10T04:06:43.313Z,996.5
2022-09-10T04:08:19.675Z,996.5
2022-09-10T04:09:55.970Z,996.5
2022-09-10T04:11:32.318Z,996.5
2022-09-10T04:13:08.629Z,996.5
2022-09-10T04:14:44.976Z,996.5
2022-09-10T04:16:21.318Z,996.5
2022-09-10T04:17:56.715Z,996.5
2022-09-10T04:19:32.979Z,996.5
2022-09-10T04:21:09.323Z,996.5
2022-09-10T04:22:45.651Z,996.5
2022-09-10T04:24:21.970Z,996.5
2022-09-10T04:25:58.304Z,996.4
2022-09-10T04:27:34.639Z,996.4
2022-09-10T04:29:10.960Z,996.4
2022-09-10T04:30:47.303Z,996.4
2022-09-10T04:32:23.637Z,996.4
2022-09-10T04:33:59.969Z,996.3
2022-09-10T04:35:36.326Z,996.4
2022-09-10T04:37:12.671Z,996.4
2022-09-10T04:38:48.950Z,996.4
2022-09-10T04:40:25.279Z,996.4
2022-09-10T04:42:00.670Z,996.4
2022-09-10T04:43:36.969Z,996.4
2022-09-10T04:45:13.325Z,996.4
2022-09-10T04:46:48.681Z,996.5
2022-09-10T04:48:24.058Z,996.6
2022-09-10T04:50:00.359Z,996.5
2022-09-10T04:51:36.711Z,996.6
2022-09-10T04:53:13.028Z,996.6
2022-09-10T04:54:49.339Z,996.6
2022-09-10T04:56:25.669Z,996.6
2022-09-10T04:58:01.995Z,996.7
2022-09-10T04:59:38.337Z,996.6
2022-09-10T05:01:14.659Z,996.6
2022-09-10T05:02:51.001Z,996.7
2022-09-10T05:04:27.337Z,996.6
2022-09-10T05:06:03.666Z,996.6
2022-09-10T05:07:39.981Z,996.7
2022-09-10T05:09:15.339Z,996.7
2022-09-10T05:10:51.658Z,996.6
2022-09-10T05:12:27.991Z,996.6
2022-09-10T05:14:04.319Z,996.7
2022-09-10T05:15:40.652Z,996.7
2022-09-10T05:17:16.981Z,996.7
2022-09-10T05:18:53.331Z,996.7
2022-09-10T05:20:29.646Z,996.7
2022-09-10T05:22:05.988Z,996.7
2022-09-10T05:23:42.307Z,996.7
2022-09-10T05:26:54.981Z,996.7
2022-09-10T05:28:31.307Z,996.7
2022-09-10T05:30:07.633Z,996.6
2022-09-10T05:31:42.986Z,996.6
2022-09-10T05:33:19.315Z,996.7
2022-09-10T05:34:55.648Z,996.7
2022-09-10T05:36:31.981Z,996.8
2022-09-10T05:38:08.306Z,996.7
2022-09-10T05:39:44.633Z,996.8
2022-09-10T05:41:20.963Z,996.8
2022-09-10T05:42:57.298Z,996.8
2022-09-10T05:44:33.635Z,996.8
2022-09-10T05:46:09.960Z,996.8
2022-09-10T05:47:46.284Z,996.8
2022-09-10T05:49:22.617Z,996.8
2022-09-10T05:50:58.958Z,996.8
2022-09-10T05:52:35.294Z,996.9
2022-09-10T05:54:11.617Z,996.9
2022-09-10T05:55:47.963Z,996.9
2022-09-10T05:57:23.301Z,997
2022-09-10T05:58:59.621Z,996.9
2022-09-10T06:00:35.961Z,996.9
2022-09-10T06:02:12.296Z,996.9
2022-09-10T06:03:48.621Z,996.9
2022-09-10T06:05:24.954Z,996.9
2022-09-10T06:07:01.314Z,996.9
2022-09-10T06:08:37.618Z,997
2022-09-10T06:10:13.942Z,997
2022-09-10T06:11:50.268Z,997
2022-09-10T06:13:26.612Z,997
2022-09-10T06:15:02.934Z,997
2022-09-10T06:16:39.273Z,997
2022-09-10T06:18:14.611Z,997
2022-09-10T06:19:50.933Z,997
2022-09-10T06:21:27.275Z,997
2022-09-10T06:23:03.607Z,997
2022-09-10T06:24:39.947Z,997
2022-09-10T06:26:16.270Z,997
2022-09-10T06:27:52.598Z,997.1
2022-09-10T06:31:05.260Z,997.1
2022-09-10T06:32:41.601Z,997.1
2022-09-10T06:34:17.935Z,997.1
2022-09-10T06:35:54.256Z,997.1
2022-09-10T06:37:30.604Z,997.1
2022-09-10T06:39:06.925Z,997.2
2022-09-10T06:40:42.268Z,997.1
2022-09-10T06:42:18.595Z,997.2
2022-09-10T06:43:54.969Z,997.2
2022-09-10T06:45:31.255Z,997.2
2022-09-10T06:47:07.591Z,997.2
2022-09-10T06:48:43.941Z,997.2
2022-09-10T06:50:20.250Z,997.2
2022-09-10T06:52:06.949Z,997.2
2022-09-10T06:53:32.910Z,997.3
2022-09-10T06:55:09.242Z,997.2
2022-09-10T06:56:45.570Z,997.2
2022-09-10T06:58:21.897Z,997.2
2022-09-10T06:59:58.237Z,997.2
2022-09-10T07:01:33.590Z,997.3
2022-09-10T07:03:09.917Z,997.3
2022-09-10T07:04:46.237Z,997.3
2022-09-10T07:06:22.570Z,997.2
2022-09-10T07:07:58.903Z,997.3
2022-09-10T07:09:35.235Z,997.3
2022-09-10T07:11:11.560Z,997.3
2022-09-10T07:12:47.887Z,997.3
2022-09-10T07:14:24.241Z,997.3
2022-09-10T07:16:00.557Z,997.3
2022-09-10T07:17:36.898Z,997.3
2022-09-10T07:19:13.218Z,997.3
2022-09-10T07:20:49.545Z,997.3
2022-09-10T07:22:25.886Z,997.3
2022-09-10T07:24:02.213Z,997.3
2022-09-10T07:25:38.548Z,997.4
2022-09-10T07:27:14.871Z,997.3
2022-09-10T07:28:50.224Z,997.4
2022-09-10T07:30:26.552Z,997.4
2022-09-10T07:32:02.884Z,997.4
2022-09-10T07:33:39.220Z,997.4
2022-09-10T07:35:15.541Z,997.4
2022-09-10T07:36:51.873Z,997.4
2022-09-10T07:38:28.208Z,997.3
2022-09-10T07:40:04.546Z,997.4
2022-09-10T07:41:40.869Z,997.3
2022-09-10T07:43:17.201Z,997.4
2022-09-10T07:44:53.526Z,997.4
2022-09-10T07:46:29.854Z,997.4
2022-09-10T07:48:06.192Z,997.4
2022-09-10T07:49:41.550Z,997.4
2022-09-10T07:51:17.877Z,997.4
2022-09-10T07:52:54.205Z,997.4
2022-09-10T07:54:30.530Z,997.4
2022-09-10T07:56:06.909Z,997.5
2022-09-10T07:57:43.191Z,997.5
2022-09-10T07:59:19.526Z,997.5
2022-09-10T08:00:55.864Z,997.5
2022-09-10T08:02:32.196Z,997.5
2022-09-10T08:04:08.539Z,997.5
2022-09-10T08:05:44.859Z,997.5
2022-09-10T08:07:21.210Z,997.5
2022-09-10T08:08:57.521Z,997.5
2022-09-10T08:10:32.858Z,997.5
2022-09-10T08:12:09.209Z,997.5
2022-09-10T08:13:45.526Z,997.5
2022-09-10T08:15:21.851Z,997.4
2022-09-10T08:16:58.173Z,997.5
2022-09-10T08:18:34.568Z,997.5
2022-09-10T08:21:47.176Z,997.5
2022-09-10T08:23:23.503Z,997.6
2022-09-10T08:24:59.840Z,997.5
2022-09-10T08:26:36.160Z,997.6
2022-09-10T08:28:12.487Z,997.6
2022-09-10T08:29:48.827Z,997.6
2022-09-10T08:31:24.186Z,997.7
2022-09-10T08:33:00.508Z,997.6
2022-09-10T08:34:36.835Z,997.6
2022-09-10T08:36:13.180Z,997.6
2022-09-10T08:37:49.511Z,997.6
2022-09-10T08:39:25.833Z,997.6
2022-09-10T08:41:02.162Z,997.7
2022-09-10T08:42:38.487Z,997.7
2022-09-10T08:44:14.820Z,997.6
2022-09-10T08:45:51.147Z,997.7
2022-09-10T08:47:27.507Z,997.7
2022-09-10T08:49:03.815Z,997.7
2022-09-10T08:50:40.143Z,997.6
2022-09-10T08:52:15.486Z,997.6
2022-09-10T08:53:51.822Z,997.7
2022-09-10T08:55:28.141Z,997.6
2022-09-10T08:57:04.474Z,997.6
2022-09-10T08:58:40.814Z,997.6
2022-09-10T09:00:17.145Z,997.6
2022-09-10T09:01:53.474Z,997.6
2022-09-10T09:03:29.847Z,997.6
2022-09-10T09:05:06.140Z,997.6
2022-09-10T09:06:42.490Z,997.6
2022-09-10T09:08:18.794Z,997.6
2022-09-10T09:09:55.131Z,997.6
2022-09-10T09:11:31.451Z,997.7
2022-09-10T09:13:07.784Z,997.6
2022-09-10T09:14:43.131Z,997.6
2022-09-10T09:16:19.466Z,997.6
2022-09-10T09:17:55.803Z,997.6
2022-09-10T09:19:32.120Z,997.6
2022-09-10T09:21:08.453Z,997.5
2022-09-10T09:22:44.788Z,997.5
2022-09-10T09:24:21.118Z,997.5
2022-09-10T09:25:57.447Z,997.5
2022-09-10T09:27:33.772Z,997.5
2022-09-10T09:29:10.104Z,997.4
2022-09-10T09:30:46.431Z,997.4
2022-09-10T09:32:22.775Z,997.5
2022-09-10T09:33:59.101Z,997.5
2022-09-10T09:35:34.458Z,997.6
2022-09-10T09:37:10.786Z,997.5
2022-09-10T09:38:47.121Z,997.5
2022-09-10T09:40:23.450Z,997.4
2022-09-10T09:41:59.764Z,997.4
2022-09-10T09:43:36.096Z,997.5
2022-09-10T09:45:12.437Z,997.4
2022-09-10T09:46:48.775Z,997.5
2022-09-10T09:48:25.133Z,997.4
2022-09-10T09:50:01.425Z,997.4
2022-09-10T09:51:37.761Z,997.3
2022-09-10T09:53:14.091Z,997.3
2022-09-10T09:54:50.411Z,997.4
2022-09-10T09:56:26.749Z,997.4
2022-09-10T09:58:02.111Z,997.4
2022-09-10T09:59:38.465Z,997.5
2022-09-10T10:01:14.763Z,997.4
2022-09-10T10:02:51.087Z,997.4
2022-09-10T10:04:27.413Z,997.4
2022-09-10T10:06:03.831Z,997.4
2022-09-10T10:07:40.115Z,997.4
2022-09-10T10:09:16.422Z,997.4
2022-09-10T10:10:51.767Z,997.3
2022-09-10T10:12:28.097Z,997.4
2022-09-10T10:14:04.418Z,997.4
2022-09-10T10:15:40.759Z,997.4
2022-09-10T10:17:17.086Z,997.3
2022-09-10T10:18:53.410Z,997.4
2022-09-10T10:20:29.758Z,997.5
2022-09-10T10:22:06.089Z,997.4
2022-09-10T10:23:42.412Z,997.5
2022-09-10T10:25:18.757Z,997.4
2022-09-10T10:26:55.078Z,997.4
2022-09-10T10:28:31.403Z,997.3
2022-09-10T10:30:07.763Z,997.2
2022-09-10T10:31:44.063Z,997.3
2022-09-10T10:33:20.414Z,997.2
2022-09-10T10:34:55.761Z,997.2
2022-09-10T10:36:32.066Z,997.1
2022-09-10T10:38:08.419Z,997.1
2022-09-10T10:39:44.736Z,997.2
2022-09-10T10:41:21.059Z,997.2
2022-09-10T10:42:57.402Z,997.2
2022-09-10T10:44:33.725Z,997.2
2022-09-10T10:46:10.062Z,997.2
2022-09-10T10:47:46.386Z,997.2
2022-09-10T10:49:22.721Z,997.2
2022-09-10T10:50:59.048Z,997.2
2022-09-10T10:52:35.376Z,997.2
2022-09-10T10:54:11.720Z,997.3
2022-09-10T10:55:47.058Z,997.2
2022-09-10T10:57:23.388Z,997.2
2022-09-10T10:58:59.734Z,997.2
2022-09-10T11:00:36.098Z,997.2
2022-09-10T11:02:12.385Z,997.2
2022-09-10T11:03:48.717Z,997.3
2022-09-10T11:05:25.049Z,997.2
2022-09-10T11:07:01.375Z,997.3
2022-09-10T11:08:37.770Z,997.3
2022-09-10T11:10:14.079Z,997.2
2022-09-10T11:11:50.377Z,997.1
2022-09-10T11:13:26.868Z,997.2
2022-09-10T11:15:03.078Z,997.2
2022-09-10T11:16:38.395Z,997.3
2022-09-10T11:18:14.759Z,997.3
2022-09-10T11:19:51.042Z,997.3
2022-09-10T11:21:27.393Z,997.3
2022-09-10T11:23:03.716Z,997.3
2022-09-10T11:24:40.046Z,997.3
2022-09-10T11:26:16.411Z,997.4
2022-09-10T11:27:52.701Z,997.3
2022-09-10T11:29:29.036Z,997.3
2022-09-10T11:31:05.372Z,997.3
2022-09-10T11:32:41.696Z,997.3
2022-09-10T11:35:54.349Z,997.2
2022-09-10T11:37:30.746Z,997.3
2022-09-10T11:39:07.014Z,997.3
2022-09-10T11:40:42.366Z,997.3
2022-09-10T11:42:18.772Z,997.2
2022-09-10T11:43:55.030Z,997.3
2022-09-10T11:45:31.353Z,997.3
2022-09-10T11:47:07.697Z,997.2
2022-09-10T11:48:44.012Z,997.3
2022-09-10T11:50:20.351Z,997.2
2022-09-10T11:51:56.697Z,997.2
2022-09-10T11:53:33.004Z,997.2
2022-09-10T11:55:09.350Z,997.2
2022-09-10T11:56:45.668Z,997.2
2022-09-10T11:58:21.997Z,997.2
2022-09-10T11:59:58.333Z,997.2
2022-09-10T12:01:33.698Z,997.3
2022-09-10T12:03:10.010Z,997.2
2022-09-10T12:04:46.337Z,997.3
2022-09-10T12:06:22.674Z,997.3
2022-09-10T12:07:59.030Z,997.4
2022-09-10T12:09:35.334Z,997.3
2022-09-10T12:11:11.656Z,997.3
2022-09-10T12:12:47.984Z,997.4
2022-09-10T12:14:24.323Z,997.4
2022-09-10T12:16:00.651Z,997.3
2022-09-10T12:17:36.982Z,997.3
2022-09-10T12:19:13.317Z,997.3
2022-09-10T12:20:49.639Z,997.3
2022-09-10T12:22:25.012Z,997.3
2022-09-10T12:24:01.323Z,997.3
2022-09-10T12:25:37.653Z,997.3
2022-09-10T12:28:50.318Z,997.3
2022-09-10T12:30:26.651Z,997.2
2022-09-10T12:32:02.983Z,997.3
2022-09-10T12:33:39.309Z,997.3
2022-09-10T12:35:15.635Z,997.3
2022-09-10T12:36:51.974Z,997.3
2022-09-10T12:38:28.306Z,997.2
2022-09-10T12:40:04.623Z,997.3
2022-09-10T12:41:40.972Z,997.2
2022-09-10T12:43:16.325Z,997.3
2022-09-10T12:44:52.640Z,997.3
2022-09-10T12:46:28.967Z,997.3
2022-09-10T12:48:05.298Z,997.3
2022-09-10T12:49:41.633Z,997.3
2022-09-10T12:51:17.957Z,997.3
2022-09-10T12:52:54.329Z,997.3
2022-09-10T12:54:30.621Z,997.3
2022-09-10T12:56:06.948Z,997.3
2022-09-10T12:57:43.292Z,997.3
2022-09-10T12:59:19.612Z,997.3
2022-09-10T13:00:55.963Z,997.3
2022-09-10T13:02:32.300Z,997.3
2022-09-10T13:04:08.642Z,997.3
2022-09-10T13:05:43.973Z,997.3
2022-09-10T13:07:20.295Z,997.3
2022-09-10T13:08:56.651Z,997.2
2022-09-10T13:10:32.955Z,997.3
2022-09-10T13:12:09.285Z,997.3
2022-09-10T13:13:45.606Z,997.3
2022-09-10T13:15:21.934Z,997.3
2022-09-10T13:16:58.274Z,997.3
2022-09-10T13:18:34.599Z,997.3
2022-09-10T13:20:10.937Z,997.2
2022-09-10T13:21:47.263Z,997.2
2022-09-10T13:23:23.610Z,997.2
2022-09-10T13:24:59.953Z,997.2
2022-09-10T13:26:35.278Z,997.3
2022-09-10T13:28:11.605Z,997.2
2022-09-10T13:29:47.930Z,997.2
2022-09-10T13:31:24.267Z,997.2
2022-09-10T13:33:00.652Z,997.2
2022-09-10T13:34:36.930Z,997.3
2022-09-10T13:36:13.286Z,997.2
2022-09-10T13:37:49.582Z,997.2
2022-09-10T13:39:25.926Z,997.3
2022-09-10T13:41:02.257Z,997.3
2022-09-10T13:42:38.603Z,997.3
2022-09-10T13:44:14.918Z,997.3
2022-09-10T13:45:51.234Z,997.3
2022-09-10T13:47:27.573Z,997.2
2022-09-10T13:49:03.912Z,997.3
2022-09-10T13:50:40.241Z,997.2
2022-09-10T13:52:16.579Z,997.2
2022-09-10T13:53:52.895Z,997.1
2022-09-10T13:55:29.218Z,997.1
2022-09-10T13:57:05.561Z,997.2
2022-09-10T13:58:41.889Z,997.3
2022-09-10T14:00:18.216Z,997.3
2022-09-10T14:01:54.552Z,997.3
2022-09-10T14:03:30.911Z,997.3
2022-09-10T14:05:07.282Z,997.3
2022-09-10T14:06:43.551Z,997.3
2022-09-10T14:08:19.878Z,997.3
2022-09-10T14:09:56.246Z,997.3
2022-09-10T14:11:32.533Z,997.3
2022-09-10T14:13:07.878Z,997.4
2022-09-10T14:14:44.218Z,997.3
2022-09-10T14:16:20.557Z,997.4
2022-09-10T14:17:56.973Z,997.3
2022-09-10T14:19:33.223Z,997.3
2022-09-10T14:21:09.552Z,997.3
2022-09-10T14:22:45.873Z,997.3
2022-09-10T14:24:22.236Z,997.2
2022-09-10T14:25:58.560Z,997.3
2022-09-10T14:27:34.881Z,997.2
2022-09-10T14:29:11.181Z,997.2
2022-09-10T14:30:47.530Z,997.1
2022-09-10T14:32:23.915Z,997.1
2022-09-10T14:34:00.195Z,997
2022-09-10T14:35:36.520Z,997.1
2022-09-10T14:37:12.842Z,997.1
2022-09-10T14:38:49.173Z,997.1
2022-09-10T14:40:25.551Z,997.1
2022-09-10T14:42:00.857Z,997.1
2022-09-10T14:43:37.176Z,997.2
2022-09-10T14:45:13.513Z,997.2
2022-09-10T14:46:49.852Z,997.2
2022-09-10T14:48:26.176Z,997.2
2022-09-10T14:50:02.497Z,997.2
2022-09-10T14:51:38.831Z,997.2
2022-09-10T14:53:15.167Z,997.2
2022-09-10T14:54:51.503Z,997.2
2022-09-10T14:56:27.832Z,997.2
2022-09-10T14:58:04.188Z,997.2
2022-09-10T14:59:40.493Z,997.3
2022-09-10T15:01:16.810Z,997.2
2022-09-10T15:02:53.161Z,997.3
2022-09-10T15:04:29.521Z,997.3
2022-09-10T15:06:05.811Z,997.3
2022-09-10T15:07:42.139Z,997.3
2022-09-10T15:09:18.475Z,997.3
2022-09-10T15:10:54.807Z,997.3
2022-09-10T15:12:31.140Z,997.3
2022-09-10T15:14:06.477Z,997.3
2022-09-10T15:15:42.822Z,997.4
2022-09-10T15:17:19.138Z,997.4
2022-09-10T15:18:55.483Z,997.3
2022-09-10T15:20:31.807Z,997.4
2022-09-10T15:22:08.137Z,997.4
2022-09-10T15:23:44.482Z,997.5
2022-09-10T15:25:20.840Z,997.5
2022-09-10T15:26:57.139Z,997.4
2022-09-10T15:28:33.468Z,997.5
2022-09-10T15:30:09.797Z,997.5
2022-09-10T15:31:46.123Z,997.5
2022-09-10T15:33:22.472Z,997.5
2022-09-10T15:34:57.921Z,997.5
2022-09-10T15:36:34.131Z,997.5
2022-09-10T15:38:10.475Z,997.5
2022-09-10T15:39:46.799Z,997.5
2022-09-10T15:41:23.124Z,997.6
2022-09-10T15:42:59.466Z,997.6
2022-09-10T15:44:35.792Z,997.6
2022-09-10T15:46:12.121Z,997.5
2022-09-10T15:47:48.460Z,997.6
2022-09-10T15:49:24.779Z,997.5
2022-09-10T15:51:01.120Z,997.6
2022-09-10T15:52:37.441Z,997.6
2022-09-10T15:54:13.770Z,997.6
2022-09-10T15:55:49.126Z,997.6
2022-09-10T15:57:25.463Z,997.6
2022-09-10T15:59:01.782Z,997.6
2022-09-10T16:00:38.118Z,997.6
2022-09-10T16:02:14.453Z,997.6
2022-09-10T16:03:50.783Z,997.6
2022-09-10T16:05:27.162Z,997.6
2022-09-10T16:07:03.484Z,997.6
2022-09-10T16:08:39.770Z,997.7
2022-09-10T16:10:16.127Z,997.7
2022-09-10T16:11:52.459Z,997.7
2022-09-10T16:13:28.805Z,997.7
2022-09-10T16:15:05.123Z,997.8
2022-09-10T16:16:40.441Z,997.7
2022-09-10T16:18:16.787Z,997.8
2022-09-10T16:19:53.111Z,997.8
2022-09-10T16:21:29.441Z,997.8
2022-09-10T16:23:05.767Z,997.8
2022-09-10T16:24:42.122Z,997.8
2022-09-10T16:26:18.415Z,997.8
2022-09-10T16:27:54.750Z,997.9
2022-09-10T16:29:31.083Z,997.9
2022-09-10T16:31:07.417Z,997.9
2022-09-10T16:32:43.783Z,997.9
2022-09-10T16:34:20.094Z,997.9
2022-09-10T16:35:56.413Z,998
2022-09-10T16:37:32.741Z,998
2022-09-10T16:39:08.102Z,997.9
2022-09-10T16:40:44.413Z,998
2022-09-10T16:42:20.738Z,998
2022-09-10T16:43:57.130Z,998
2022-09-10T16:45:33.429Z,998
2022-09-10T16:47:09.739Z,998
2022-09-10T16:48:46.062Z,998.1
2022-09-10T16:50:22.400Z,998.1
2022-09-10T16:51:58.737Z,998
2022-09-10T16:53:35.064Z,998.1
2022-09-10T16:55:11.407Z,998.1
2022-09-10T16:56:47.726Z,998.2
2022-09-10T16:58:24.139Z,998.2
2022-09-10T16:59:59.399Z,998.2
2022-09-10T17:01:35.739Z,998.2
2022-09-10T17:03:12.061Z,998.2
2022-09-10T17:04:48.418Z,998.2
2022-09-10T17:06:24.733Z,998.3
2022-09-10T17:08:01.048Z,998.3
2022-09-10T17:09:37.419Z,998.3
2022-09-10T17:11:13.744Z,998.3
2022-09-10T17:12:50.044Z,998.3
2022-09-10T17:14:26.438Z,998.3
2022-09-10T17:16:02.729Z,998.4
2022-09-10T17:17:39.041Z,998.4
2022-09-10T17:19:15.370Z,998.4
2022-09-10T17:20:50.727Z,998.5
2022-09-10T17:22:27.044Z,998.5
2022-09-10T17:24:03.385Z,998.5
2022-09-10T17:25:39.718Z,998.5
2022-09-10T17:27:16.053Z,998.5
2022-09-10T17:28:52.375Z,998.5
2022-09-10T17:30:28.702Z,998.5
2022-09-10T17:32:05.033Z,998.6
2022-09-10T17:33:41.373Z,998.6
2022-09-10T17:35:17.745Z,998.6
2022-09-10T17:36:54.032Z,998.6
2022-09-10T17:38:30.398Z,998.6
2022-09-10T17:40:06.695Z,998.6
2022-09-10T17:41:42.041Z,998.6
2022-09-10T17:43:18.372Z,998.7
2022-09-10T17:44:54.761Z,998.7
2022-09-10T17:46:31.033Z,998.7
2022-09-10T17:48:07.369Z,998.7
2022-09-10T17:49:43.688Z,998.7
2022-09-10T17:51:20.037Z,998.8
2022-09-10T17:52:56.354Z,998.9
2022-09-10T17:54:32.688Z,998.9
2022-09-10T17:56:09.014Z,998.9
2022-09-10T17:57:45.344Z,998.9
2022-09-10T17:59:21.677Z,998.9
2022-09-10T18:00:58.004Z,999
2022-09-10T18:02:33.353Z,999.1
2022-09-10T18:04:09.708Z,999
2022-09-10T18:05:46.011Z,999.1
2022-09-10T18:07:22.341Z,999.2
2022-09-10T18:08:58.668Z,999.1
2022-09-10T18:10:35.014Z,999.2
2022-09-10T18:12:11.353Z,999.2
2022-09-10T18:13:47.665Z,999.2
2022-09-10T18:15:24.006Z,999.2
2022-09-10T18:17:00.332Z,999.3
2022-09-10T18:18:36.668Z,999.3
2022-09-10T18:20:12.998Z,999.4
2022-09-10T18:21:49.334Z,999.4
2022-09-10T18:23:24.675Z,999.4
2022-09-10T18:25:00.997Z,999.4
2022-09-10T18:26:37.332Z,999.5
2022-09-10T18:28:13.665Z,999.5
2022-09-10T18:29:49.985Z,999.5
2022-09-10T18:31:26.369Z,999.6
2022-09-10T18:33:02.672Z,999.6
2022-09-10T18:34:39.037Z,999.6
2022-09-10T18:36:14.360Z,999.7
2022-09-10T18:37:49.687Z,999.7
2022-09-10T18:39:26.109Z,999.6
2022-09-10T18:41:02.362Z,999.7
2022-09-10T18:42:38.685Z,999.7
2022-09-10T18:44:14.037Z,999.8
2022-09-10T18:45:49.389Z,999.9
2022-09-10T18:47:25.728Z,999.8
2022-09-10T18:49:02.063Z,999.9
2022-09-10T18:50:38.383Z,999.9
2022-09-10T18:52:14.709Z,1000
2022-09-10T18:53:51.034Z,1000
2022-09-10T18:55:27.373Z,1000
2022-09-10T18:57:03.723Z,1000
2022-09-10T18:58:40.029Z,1000
2022-09-10T19:00:16.365Z,1000
2022-09-10T19:01:52.812Z,1000
2022-09-10T19:03:29.084Z,1000
2022-09-10T19:05:05.367Z,1000.1
2022-09-10T19:06:40.754Z,1000.2
2022-09-10T19:08:17.032Z,1000.2
2022-09-10T19:09:53.422Z,1000.3
2022-09-10T19:11:29.690Z,1000.3
2022-09-10T19:13:06.031Z,1000.3
2022-09-10T19:14:42.356Z,1000.3
2022-09-10T19:16:18.775Z,1000.3
2022-09-10T19:17:55.067Z,1000.3
2022-09-10T19:19:31.417Z,1000.4
2022-09-10T19:21:07.688Z,1000.4
2022-09-10T19:22:44.006Z,1000.4
2022-09-10T19:24:20.348Z,1000.4
2022-09-10T19:25:56.800Z,1000.5
2022-09-10T19:27:32.120Z,1000.5
2022-09-10T19:29:08.349Z,1000.5
2022-09-10T19:30:44.739Z,1000.6
2022-09-10T19:32:21.074Z,1000.6
2022-09-10T19:33:57.431Z,1000.6
2022-09-10T19:35:33.683Z,1000.6
2022-09-10T19:37:10.036Z,1000.7
2022-09-10T19:38:46.369Z,1000.7
2022-09-10T19:40:22.663Z,1000.7
2022-09-10T19:41:59.060Z,1000.7
2022-09-10T19:43:35.354Z,1000.7
2022-09-10T19:45:11.684Z,1000.7
2022-09-10T19:46:48.032Z,1000.8
2022-09-10T19:48:24.343Z,1000.7
2022-09-10T19:50:00.653Z,1000.8
2022-09-10T19:51:36.019Z,1000.8
2022-09-10T19:53:12.339Z,1000.8
2022-09-10T19:54:48.720Z,1000.8
2022-09-10T19:56:25.028Z,1000.8
2022-09-10T19:58:01.322Z,1000.8
2022-09-10T19:59:37.654Z,1000.8
2022-09-10T20:01:13.985Z,1000.8
2022-09-10T20:02:50.318Z,1000.8
2022-09-10T20:04:26.672Z,1000.8
2022-09-10T20:06:02.987Z,1000.7
2022-09-10T20:07:39.317Z,1000.8
2022-09-10T20:09:15.649Z,1000.8
2022-09-10T20:10:51.984Z,1000.8
2022-09-10T20:12:27.316Z,1000.8
2022-09-10T20:14:03.667Z,1000.8
2022-09-10T20:15:39.972Z,1000.8
2022-09-10T20:17:16.303Z,1000.9
2022-09-10T20:18:52.634Z,1000.8
2022-09-10T20:20:28.972Z,1000.8
2022-09-10T20:22:05.328Z,1000.8
2022-09-10T20:23:41.629Z,1000.9
2022-09-10T20:25:18.000Z,1000.9
2022-09-10T20:26:54.291Z,1000.9
2022-09-10T20:28:30.632Z,1000.9
2022-09-10T20:30:06.950Z,1000.9
2022-09-10T20:31:43.274Z,1000.9
2022-09-10T20:33:18.632Z,1000.9
2022-09-10T20:34:54.960Z,1001
2022-09-10T20:36:31.298Z,1000.9
2022-09-10T20:38:07.622Z,1001
2022-09-10T20:39:43.983Z,1001
2022-09-10T20:41:20.278Z,1001
2022-09-10T20:42:56.613Z,1001
2022-09-10T20:44:32.937Z,1001
2022-09-10T20:46:09.268Z,1001.1
2022-09-10T20:47:45.606Z,1001.1